Time;durP1;ratioP1;P1;durP2;ratioP2;P2;SDS_P1;SDS_P2;PMS_P1;PMS_P2;Temp;Humidity;BMP_temperature;BMP_pressure;BME280_temperature;BME280_humidity;BME280_pressure;Samples;Min_cycle;Max_cycle;Signal;HPM_P1;HPM_P2
2023/09/30 00:00:26;;;;;;;12.32;4.28;;;12.90;99.90;;;;;;5009730;28;20505;-73
2023/09/30 00:02:52;;;;;;;10.48;3.50;;;12.90;99.90;;;;;;5009931;28;20038;-73
2023/09/30 00:05:19;;;;;;;12.40;4.13;;;12.90;99.90;;;;;;5010071;28;20386;-73
2023/09/30 00:07:46;;;;;;;13.85;4.43;;;12.80;99.90;;;;;;5009791;28;20034;-73
2023/09/30 00:10:11;;;;;;;12.32;3.80;;;12.90;99.90;;;;;;5010977;28;20121;-73
2023/09/30 00:12:37;;;;;;;12.70;5.05;;;12.80;99.90;;;;;;5009727;28;20073;-73
2023/09/30 00:15:04;;;;;;;10.52;3.20;;;12.90;99.90;;;;;;5010999;28;20095;-73
2023/09/30 00:17:29;;;;;;;17.83;4.80;;;12.90;99.90;;;;;;5009666;28;20041;-73
2023/09/30 00:19:55;;;;;;;10.32;3.28;;;12.90;99.90;;;;;;5009641;28;20161;-73
2023/09/30 00:22:21;;;;;;;13.38;4.22;;;12.90;99.90;;;;;;5009685;28;20092;-73
2023/09/30 00:24:47;;;;;;;9.73;3.58;;;12.80;99.90;;;;;;5011061;28;20072;-73
2023/09/30 00:27:12;;;;;;;12.65;3.83;;;12.80;99.90;;;;;;5009489;28;20140;-73
2023/09/30 00:29:38;;;;;;;13.88;3.88;;;12.80;99.90;;;;;;5009585;28;20136;-73
2023/09/30 00:32:04;;;;;;;12.70;3.83;;;12.80;99.90;;;;;;5010858;28;20493;-73
2023/09/30 00:34:33;;;;;;;12.57;3.78;;;12.80;99.90;;;;;;5009469;28;20033;-73
2023/09/30 00:36:58;;;;;;;12.25;3.78;;;12.90;99.90;;;;;;5009716;28;20528;-73
2023/09/30 00:39:26;;;;;;;16.27;4.25;;;12.80;99.90;;;;;;5010374;28;20049;-73
2023/09/30 00:41:52;;;;;;;17.30;4.25;;;12.80;99.90;;;;;;5009398;28;20045;-73
2023/09/30 00:44:18;;;;;;;12.43;3.78;;;12.90;99.90;;;;;;5009384;28;20044;-73
2023/09/30 00:46:44;;;;;;;8.00;3.45;;;12.90;99.90;;;;;;5009369;28;20038;-73
2023/09/30 00:49:13;;;;;;;11.80;3.90;;;12.90;99.90;;;;;;4992551;28;20037;-73
2023/09/30 00:51:39;;;;;;;10.00;3.10;;;12.90;99.90;;;;;;5009230;28;20057;-73
2023/09/30 00:54:06;;;;;;;8.70;3.75;;;12.80;99.90;;;;;;5009157;28;20409;-73
2023/09/30 00:56:33;;;;;;;13.48;3.65;;;12.90;99.90;;;;;;5009140;28;20049;-73
2023/09/30 00:58:59;;;;;;;10.75;3.83;;;12.80;99.90;;;;;;5008956;28;20045;-73
2023/09/30 01:01:25;;;;;;;10.13;3.38;;;12.80;99.90;;;;;;5010179;28;20046;-73
2023/09/30 01:03:51;;;;;;;8.77;2.83;;;12.80;99.90;;;;;;5008965;28;20034;-73
2023/09/30 01:06:17;;;;;;;11.02;3.55;;;12.80;99.90;;;;;;5008914;28;20099;-73
2023/09/30 01:08:43;;;;;;;8.23;3.97;;;12.70;99.90;;;;;;5010167;28;20057;-73
2023/09/30 01:11:09;;;;;;;10.30;3.55;;;12.70;99.90;;;;;;5010118;28;20509;-73
2023/09/30 01:13:35;;;;;;;16.98;4.30;;;12.70;99.90;;;;;;5010140;28;20034;-73
2023/09/30 01:16:12;;;;;;;12.82;3.20;;;12.70;99.90;;;;;;5008858;28;20129;-73
2023/09/30 01:18:39;;;;;;;15.32;4.97;;;12.80;99.90;;;;;;5009801;28;20049;-73
2023/09/30 01:21:05;;;;;;;16.67;3.20;;;12.80;99.90;;;;;;5009890;28;20125;-73
2023/09/30 01:23:32;;;;;;;9.68;3.00;;;12.80;99.90;;;;;;5010076;28;20045;-73
2023/09/30 01:26:13;;;;;;;12.73;3.15;;;12.80;99.90;;;;;;5008586;28;20128;-73
2023/09/30 01:28:39;;;;;;;11.23;3.47;;;12.80;99.90;;;;;;5009753;28;20066;-73
2023/09/30 01:31:05;;;;;;;17.55;4.13;;;12.80;99.90;;;;;;5008127;28;20049;-73
2023/09/30 01:33:31;;;;;;;19.38;3.15;;;12.90;99.90;;;;;;5010026;28;20049;-73
2023/09/30 01:35:58;;;;;;;11.90;3.25;;;12.90;99.90;;;;;;5008578;28;20038;-73
2023/09/30 01:38:23;;;;;;;13.18;4.38;;;12.90;99.90;;;;;;5009755;28;20083;-73
2023/09/30 01:40:49;;;;;;;13.50;3.22;;;12.90;99.90;;;;;;5008280;28;20452;-73
2023/09/30 01:43:15;;;;;;;11.88;4.00;;;12.90;99.90;;;;;;5009668;28;20052;-73
2023/09/30 01:45:42;;;;;;;19.77;3.95;;;12.90;99.90;;;;;;5002127;28;20060;-73
2023/09/30 01:48:12;;;;;;;10.75;3.92;;;12.90;99.90;;;;;;4988907;28;20448;-73
2023/09/30 01:50:38;;;;;;;11.95;3.53;;;12.90;99.90;;;;;;4988703;28;20091;-73
2023/09/30 01:53:09;;;;;;;12.77;3.70;;;12.90;99.90;;;;;;4990071;28;20048;-73
2023/09/30 01:55:35;;;;;;;11.05;4.05;;;12.90;99.90;;;;;;4988893;28;20041;-73
2023/09/30 01:58:01;;;;;;;10.75;4.72;;;12.90;99.90;;;;;;4972386;28;20043;-73
2023/09/30 02:00:28;;;;;;;13.95;3.38;;;12.80;99.90;;;;;;4988509;28;20038;-73
2023/09/30 02:02:55;;;;;;;12.95;3.25;;;12.90;99.90;;;;;;4988839;28;20045;-73
2023/09/30 02:05:22;;;;;;;10.60;3.33;;;12.90;99.90;;;;;;4988490;28;20043;-73
2023/09/30 02:07:48;;;;;;;14.80;4.15;;;12.90;99.90;;;;;;4972303;28;20623;-73
2023/09/30 02:10:13;;;;;;;11.32;4.25;;;12.90;99.90;;;;;;4988153;28;20090;-73
2023/09/30 02:12:39;;;;;;;8.98;3.58;;;12.90;99.90;;;;;;4988311;28;20086;-73
2023/09/30 02:15:07;;;;;;;11.15;3.33;;;12.80;99.90;;;;;;4988438;28;20038;-73
2023/09/30 02:17:32;;;;;;;12.95;3.65;;;12.90;99.90;;;;;;4989787;28;20057;-73
2023/09/30 02:19:58;;;;;;;10.57;2.88;;;12.90;99.90;;;;;;4988176;28;20038;-73
2023/09/30 02:22:24;;;;;;;16.42;4.00;;;12.80;99.90;;;;;;4988344;28;20125;-73
2023/09/30 02:24:50;;;;;;;7.85;3.22;;;12.90;99.90;;;;;;4989619;28;20054;-73
2023/09/30 02:27:16;;;;;;;6.78;3.17;;;12.80;99.90;;;;;;4988434;28;20095;-73
2023/09/30 02:29:41;;;;;;;8.93;3.20;;;12.90;99.90;;;;;;4988000;28;20546;-73
2023/09/30 02:32:07;;;;;;;8.90;3.13;;;12.90;99.90;;;;;;5010091;28;20112;-73
2023/09/30 02:34:35;;;;;;;13.05;3.92;;;12.90;99.90;;;;;;5027482;28;20091;-73
2023/09/30 02:37:00;;;;;;;11.27;3.67;;;12.90;99.90;;;;;;4988913;28;20494;-73
2023/09/30 02:39:26;;;;;;;8.90;2.78;;;12.90;99.90;;;;;;5016698;28;20075;-73
2023/09/30 02:41:52;;;;;;;9.35;3.30;;;12.90;99.90;;;;;;5025672;28;20464;-73
2023/09/30 02:44:18;;;;;;;9.25;3.63;;;12.90;99.90;;;;;;4994054;28;20040;-73
2023/09/30 02:46:43;;;;;;;10.95;3.50;;;12.90;99.90;;;;;;4999280;28;20124;-73
2023/09/30 02:49:09;;;;;;;7.72;2.63;;;12.90;99.90;;;;;;4991235;28;20051;-73
2023/09/30 02:51:34;;;;;;;8.85;3.25;;;12.90;99.90;;;;;;4992692;28;20068;-73
2023/09/30 02:54:00;;;;;;;12.50;2.90;;;12.90;99.90;;;;;;4991444;28;20695;-73
2023/09/30 02:56:28;;;;;;;9.10;3.65;;;12.90;99.90;;;;;;5008465;28;20030;-73
2023/09/30 02:58:53;;;;;;;8.98;2.92;;;12.90;99.90;;;;;;5014305;28;20042;-73
2023/09/30 03:01:20;;;;;;;12.13;2.72;;;12.80;99.90;;;;;;5031730;28;20045;-73
2023/09/30 03:03:46;;;;;;;10.30;3.00;;;12.80;99.90;;;;;;5031892;28;20048;-73
2023/09/30 03:06:12;;;;;;;7.28;3.33;;;12.90;99.90;;;;;;5026714;28;20041;-73
2023/09/30 03:08:37;;;;;;;10.68;3.45;;;12.90;99.90;;;;;;5023224;28;20037;-73
2023/09/30 03:11:04;;;;;;;14.27;3.72;;;12.90;99.90;;;;;;5030332;28;20044;-73
2023/09/30 03:13:30;;;;;;;10.95;3.90;;;12.90;99.90;;;;;;5030476;28;20077;-73
2023/09/30 03:15:56;;;;;;;7.97;3.38;;;12.90;99.90;;;;;;5030688;28;20041;-73
2023/09/30 03:18:26;;;;;;;12.05;3.35;;;12.80;99.90;;;;;;5030320;28;20038;-73
2023/09/30 03:20:56;;;;;;;7.65;2.65;;;12.90;99.90;;;;;;5030134;28;20057;-73
2023/09/30 03:23:28;;;;;;;10.68;3.67;;;12.90;99.90;;;;;;5030253;28;20049;-73
2023/09/30 03:25:56;;;;;;;10.05;3.55;;;12.90;99.90;;;;;;5030287;28;20094;-73
2023/09/30 03:28:22;;;;;;;9.48;3.28;;;12.90;99.90;;;;;;5030135;28;20102;-73
2023/09/30 03:30:47;;;;;;;14.02;4.45;;;12.90;99.90;;;;;;5031343;28;20041;-73
2023/09/30 03:33:13;;;;;;;9.35;2.83;;;12.90;99.90;;;;;;5031517;28;20037;-73
2023/09/30 03:35:39;;;;;;;15.93;3.38;;;12.90;99.90;;;;;;5025661;28;20050;-73
2023/09/30 03:38:04;;;;;;;11.88;3.33;;;12.90;99.90;;;;;;5001868;28;20039;-73
2023/09/30 03:40:33;;;;;;;13.50;3.35;;;12.90;99.90;;;;;;5011562;28;20041;-74
2023/09/30 03:42:59;;;;;;;13.20;3.83;;;12.90;99.90;;;;;;5010736;28;20478;-73
2023/09/30 03:45:25;;;;;;;9.85;3.50;;;12.90;99.90;;;;;;5011494;28;20046;-73
2023/09/30 03:47:51;;;;;;;8.68;3.83;;;12.90;99.90;;;;;;5010020;28;20168;-73
2023/09/30 03:50:17;;;;;;;9.15;3.30;;;12.90;99.90;;;;;;5009927;28;20166;-73
2023/09/30 03:52:44;;;;;;;11.35;3.97;;;12.90;99.90;;;;;;5011219;28;20459;-73
2023/09/30 03:55:15;;;;;;;11.02;3.83;;;13.00;99.90;;;;;;4993444;28;20052;-73
2023/09/30 03:57:41;;;;;;;12.98;3.88;;;12.90;99.90;;;;;;5011329;28;20417;-73
2023/09/30 04:00:11;;;;;;;10.60;3.35;;;12.90;99.90;;;;;;5009711;28;20042;-73
2023/09/30 04:02:36;;;;;;;13.32;3.67;;;13.00;99.90;;;;;;4993656;28;20046;-74
2023/09/30 04:05:05;;;;;;;13.20;3.55;;;13.00;99.90;;;;;;5011171;28;20061;-73
2023/09/30 04:07:32;;;;;;;10.07;3.28;;;12.90;99.90;;;;;;5009992;28;20563;-73
2023/09/30 04:10:01;;;;;;;13.23;3.55;;;12.90;99.90;;;;;;5011017;28;20045;-73
2023/09/30 04:12:26;;;;;;;18.02;4.95;;;12.90;99.90;;;;;;5011267;28;20042;-73
2023/09/30 04:14:52;;;;;;;12.82;4.15;;;12.90;99.90;;;;;;5009869;28;20037;-73
2023/09/30 04:17:18;;;;;;;12.07;5.00;;;12.90;99.90;;;;;;5011015;28;20511;-73
2023/09/30 04:19:43;;;;;;;12.80;4.80;;;12.80;99.90;;;;;;5009500;28;20038;-73
2023/09/30 04:22:09;;;;;;;10.20;3.85;;;12.90;99.90;;;;;;5009754;28;20148;-74
2023/09/30 04:24:35;;;;;;;10.07;3.50;;;12.90;99.90;;;;;;5009707;28;20057;-74
2023/09/30 04:27:04;;;;;;;12.55;4.53;;;12.90;99.90;;;;;;5010828;28;20042;-73
2023/09/30 04:29:29;;;;;;;8.98;4.53;;;12.90;99.90;;;;;;5010615;28;20161;-74
2023/09/30 04:31:56;;;;;;;17.17;6.05;;;12.90;99.90;;;;;;5009581;28;20129;-73
2023/09/30 04:34:22;;;;;;;13.60;4.80;;;12.90;99.90;;;;;;5009800;28;20046;-74
2023/09/30 04:36:47;;;;;;;15.10;4.45;;;12.90;99.90;;;;;;5009623;28;20045;-74
2023/09/30 04:39:14;;;;;;;14.65;5.18;;;12.90;99.90;;;;;;5001070;28;20042;-73
2023/09/30 04:41:41;;;;;;;14.05;5.28;;;12.90;99.90;;;;;;5009446;28;20049;-74
2023/09/30 04:44:09;;;;;;;13.35;5.63;;;12.80;99.90;;;;;;5010667;28;20146;-73
2023/09/30 04:46:34;;;;;;;11.80;5.15;;;12.80;99.90;;;;;;4992918;28;20049;-73
2023/09/30 04:49:02;;;;;;;13.32;6.05;;;12.80;99.90;;;;;;5009326;28;20038;-73
2023/09/30 04:51:28;;;;;;;10.82;4.60;;;12.70;99.90;;;;;;5009081;28;20053;-73
2023/09/30 04:53:55;;;;;;;11.57;4.95;;;12.80;99.90;;;;;;5010543;28;20411;-74
2023/09/30 04:56:20;;;;;;;9.30;5.85;;;12.70;99.90;;;;;;5009329;28;20045;-73
2023/09/30 04:58:46;;;;;;;16.63;5.57;;;12.70;99.90;;;;;;5008970;28;20129;-71
2023/09/30 05:01:12;;;;;;;11.27;5.18;;;12.60;99.90;;;;;;5008971;28;20508;-74
2023/09/30 05:03:38;;;;;;;15.90;5.30;;;12.70;99.90;;;;;;5010595;28;20034;-73
2023/09/30 05:06:04;;;;;;;15.43;6.05;;;12.70;99.90;;;;;;5008038;28;20041;-74
2023/09/30 05:08:30;;;;;;;11.63;5.30;;;12.60;99.90;;;;;;4992551;28;20053;-73
2023/09/30 05:10:56;;;;;;;15.77;5.70;;;12.60;99.90;;;;;;5008713;28;20045;-73
2023/09/30 05:13:23;;;;;;;13.68;5.82;;;12.60;99.90;;;;;;5009006;28;20057;-73
2023/09/30 05:15:51;;;;;;;17.42;5.57;;;12.60;99.90;;;;;;4992574;28;20042;-74
2023/09/30 05:18:16;;;;;;;14.40;5.78;;;12.60;99.90;;;;;;5008742;28;20050;-73
2023/09/30 05:20:42;;;;;;;12.40;5.85;;;12.60;99.90;;;;;;5008603;28;20413;-74
2023/09/30 05:23:08;;;;;;;15.50;5.80;;;12.60;99.90;;;;;;5009003;28;20091;-73
2023/09/30 05:25:33;;;;;;;15.00;6.18;;;12.60;99.90;;;;;;5008712;28;20041;-73
2023/09/30 05:27:59;;;;;;;20.45;6.43;;;12.60;99.90;;;;;;5008567;28;20046;-73
2023/09/30 05:30:25;;;;;;;15.23;5.65;;;12.60;99.90;;;;;;5008438;28;20073;-73
2023/09/30 05:32:52;;;;;;;16.33;5.75;;;12.60;99.90;;;;;;5007261;28;20121;-73
2023/09/30 05:35:18;;;;;;;15.60;6.80;;;12.50;99.90;;;;;;5008572;28;20054;-73
2023/09/30 05:37:45;;;;;;;13.80;5.88;;;12.50;99.90;;;;;;4992392;28;20467;-73
2023/09/30 05:40:21;;;;;;;11.63;5.57;;;12.60;99.90;;;;;;4991936;28;20045;-73
2023/09/30 05:42:49;;;;;;;16.50;6.47;;;12.50;99.90;;;;;;5008727;28;20045;-73
2023/09/30 05:45:15;;;;;;;14.68;5.70;;;12.50;99.90;;;;;;5008407;28;20056;-74
2023/09/30 05:47:41;;;;;;;12.82;5.82;;;12.50;99.90;;;;;;5009621;28;20073;-73
2023/09/30 05:50:15;;;;;;;12.18;5.82;;;12.60;99.90;;;;;;5008096;28;20030;-73
2023/09/30 05:52:43;;;;;;;13.05;5.78;;;12.60;99.90;;;;;;5008366;28;20049;-73
2023/09/30 05:55:09;;;;;;;16.13;6.07;;;12.50;99.90;;;;;;5008330;28;20038;-73
2023/09/30 05:57:35;;;;;;;13.70;5.93;;;12.60;99.90;;;;;;5008092;28;20064;-73
2023/09/30 06:00:01;;;;;;;15.30;7.18;;;12.50;99.90;;;;;;5008035;28;20041;-73
2023/09/30 06:02:26;;;;;;;15.55;5.65;;;12.60;99.90;;;;;;5008168;28;20033;-73
2023/09/30 06:04:53;;;;;;;17.88;6.07;;;12.60;99.90;;;;;;5008415;28;20038;-73
2023/09/30 06:07:20;;;;;;;11.07;5.60;;;12.70;99.90;;;;;;5007981;28;20081;-73
2023/09/30 06:09:48;;;;;;;13.32;5.80;;;12.60;99.90;;;;;;5008162;28;20397;-73
2023/09/30 06:12:13;;;;;;;12.88;6.10;;;12.60;99.90;;;;;;5008100;28;20580;-73
2023/09/30 06:14:40;;;;;;;12.07;5.38;;;12.60;99.90;;;;;;5008041;28;20121;-73
2023/09/30 06:17:07;;;;;;;15.07;5.40;;;12.60;99.90;;;;;;5007759;28;20050;-73
2023/09/30 06:19:32;;;;;;;12.02;5.53;;;12.60;99.90;;;;;;5007616;28;20094;-73
2023/09/30 06:21:59;;;;;;;20.30;6.07;;;12.60;99.90;;;;;;5008001;28;20038;-73
2023/09/30 06:24:24;;;;;;;14.25;5.65;;;12.60;99.90;;;;;;5008033;28;20053;-73
2023/09/30 06:26:51;;;;;;;12.55;6.63;;;12.70;99.90;;;;;;5007816;28;20042;-73
2023/09/30 06:29:17;;;;;;;17.20;7.57;;;12.70;99.90;;;;;;5007558;28;20042;-73
2023/09/30 06:31:43;;;;;;;14.80;6.45;;;12.80;99.90;;;;;;4991555;28;20121;-74
2023/09/30 06:34:11;;;;;;;13.98;6.15;;;12.90;99.90;;;;;;5007972;28;20400;-72
2023/09/30 06:36:37;;;;;;;15.85;5.78;;;13.00;99.90;;;;;;5009037;28;20038;-72
2023/09/30 06:39:05;;;;;;;12.45;5.75;;;13.00;99.90;;;;;;5007536;28;20046;-72
2023/09/30 06:41:31;;;;;;;13.00;5.93;;;13.20;99.90;;;;;;5007644;28;20404;-69
2023/09/30 06:43:57;;;;;;;12.45;6.38;;;13.30;99.90;;;;;;5007662;28;20124;-69
2023/09/30 06:46:23;;;;;;;18.17;7.00;;;13.40;99.90;;;;;;5007470;28;20053;-70
2023/09/30 06:48:51;;;;;;;13.77;6.43;;;13.50;99.90;;;;;;5008025;28;20050;-69
2023/09/30 06:51:17;;;;;;;11.65;6.28;;;13.60;99.90;;;;;;5007379;28;20095;-69
2023/09/30 06:53:43;;;;;;;15.65;6.40;;;13.70;99.90;;;;;;5008603;28;20374;-69
2023/09/30 06:56:09;;;;;;;11.75;5.75;;;13.80;99.90;;;;;;5007750;28;20038;-71
2023/09/30 06:58:35;;;;;;;13.32;5.78;;;13.90;99.90;;;;;;5008567;28;20042;-69
2023/09/30 07:01:01;;;;;;;12.93;6.80;;;14.00;99.90;;;;;;5008118;28;20095;-70
2023/09/30 07:03:26;;;;;;;15.73;6.53;;;14.10;99.90;;;;;;5008252;28;20147;-70
2023/09/30 07:05:54;;;;;;;17.38;7.38;;;14.20;99.90;;;;;;4990621;28;20125;-70
2023/09/30 07:08:21;;;;;;;14.52;6.68;;;14.20;99.90;;;;;;5008455;28;20163;-70
2023/09/30 07:10:48;;;;;;;17.27;7.25;;;14.30;99.90;;;;;;5007358;28;20121;-70
2023/09/30 07:13:16;;;;;;;13.82;6.00;;;14.40;99.90;;;;;;5008515;28;20516;-71
2023/09/30 07:15:41;;;;;;;14.05;6.75;;;14.50;99.90;;;;;;5008687;28;20049;-70
2023/09/30 07:18:08;;;;;;;16.02;6.43;;;14.60;99.90;;;;;;5008393;28;20397;-71
2023/09/30 07:20:34;;;;;;;16.40;7.32;;;14.70;99.90;;;;;;5008164;28;20110;-71
2023/09/30 07:23:01;;;;;;;15.20;6.22;;;14.80;99.90;;;;;;5007276;28;20483;-71
2023/09/30 07:25:27;;;;;;;14.32;6.55;;;14.80;99.90;;;;;;4991027;28;20046;-71
2023/09/30 07:27:52;;;;;;;18.48;6.80;;;14.80;99.90;;;;;;5007045;28;20058;-71
2023/09/30 07:30:18;;;;;;;13.63;6.68;;;14.90;99.90;;;;;;5009042;28;20034;-71
2023/09/30 07:32:45;;;;;;;14.93;6.50;;;15.00;99.90;;;;;;5009931;28;20485;-72
2023/09/30 07:35:14;;;;;;;14.82;7.32;;;15.00;99.90;;;;;;5011278;28;20046;-71
2023/09/30 07:37:39;;;;;;;15.13;6.18;;;14.90;99.90;;;;;;5010226;28;20060;-72
2023/09/30 07:40:06;;;;;;;18.33;7.03;;;14.90;99.90;;;;;;5010000;28;20442;-73
2023/09/30 07:42:33;;;;;;;12.38;5.70;;;14.80;99.90;;;;;;5010308;28;20057;-73
2023/09/30 07:44:59;;;;;;;13.13;5.72;;;14.80;99.90;;;;;;5010342;28;20041;-73
2023/09/30 07:47:24;;;;;;;11.40;5.65;;;14.90;99.90;;;;;;5011243;28;20053;-73
2023/09/30 07:49:50;;;;;;;18.35;7.70;;;15.00;99.90;;;;;;5038803;23;20094;-71
2023/09/30 07:52:15;;;;;;;15.60;5.75;;;15.00;99.90;;;;;;5031313;28;20480;-71
2023/09/30 07:54:41;;;;;;;14.38;6.63;;;15.10;99.90;;;;;;5031329;28;20038;-71
2023/09/30 07:57:06;;;;;;;15.85;7.20;;;15.20;99.90;;;;;;5031282;28;20572;-71
2023/09/30 07:59:33;;;;;;;12.90;6.70;;;15.30;99.90;;;;;;5030299;28;20439;-71
2023/09/30 08:01:59;;;;;;;15.55;6.25;;;15.50;99.90;;;;;;5031046;28;20050;-71
2023/09/30 08:04:24;;;;;;;16.27;6.55;;;15.60;99.90;;;;;;5030974;28;20064;-71
2023/09/30 08:06:51;;;;;;;16.83;5.63;;;15.70;99.90;;;;;;5030714;28;20077;-71
2023/09/30 08:09:18;;;;;;;13.27;6.15;;;15.80;99.90;;;;;;5029491;28;20038;-71
2023/09/30 08:11:44;;;;;;;12.48;6.28;;;15.90;99.90;;;;;;5030999;28;20041;-71
2023/09/30 08:14:10;;;;;;;12.23;5.68;;;16.00;99.90;;;;;;5030926;28;20046;-71
2023/09/30 08:16:38;;;;;;;11.98;5.93;;;16.10;99.90;;;;;;5030863;28;20421;-70
2023/09/30 08:19:05;;;;;;;9.30;6.05;;;16.10;99.90;;;;;;5030281;28;20048;-71
2023/09/30 08:21:31;;;;;;;12.23;4.90;;;16.20;99.90;;;;;;5030815;28;20095;-71
2023/09/30 08:23:57;;;;;;;12.35;5.28;;;16.20;99.90;;;;;;5030613;28;20442;-71
2023/09/30 08:26:22;;;;;;;11.43;5.72;;;16.40;99.90;;;;;;5030606;28;20093;-71
2023/09/30 08:28:48;;;;;;;11.48;5.70;;;16.50;99.90;;;;;;5030578;28;20120;-71
2023/09/30 08:31:14;;;;;;;13.25;5.40;;;16.60;99.90;;;;;;5030504;28;20030;-71
2023/09/30 08:33:43;;;;;;;13.77;5.13;;;16.70;99.90;;;;;;5030471;28;20034;-71
2023/09/30 08:36:10;;;;;;;13.38;5.43;;;16.80;99.90;;;;;;5030819;28;20052;-70
2023/09/30 08:38:36;;;;;;;11.75;4.45;;;16.90;99.90;;;;;;5030494;28;20043;-71
2023/09/30 08:41:02;;;;;;;14.52;5.30;;;17.00;99.90;;;;;;5029148;28;20047;-70
2023/09/30 08:43:30;;;;;;;14.82;5.03;;;17.10;99.90;;;;;;5030496;28;20037;-71
2023/09/30 08:45:57;;;;;;;11.30;4.60;;;17.10;99.90;;;;;;5030219;28;20124;-70
2023/09/30 08:48:32;;;;;;;9.25;4.65;;;17.10;99.90;;;;;;5029982;28;20037;-70
2023/09/30 08:50:59;;;;;;;12.80;4.97;;;17.20;99.90;;;;;;5030256;28;20454;-71
2023/09/30 08:53:25;;;;;;;13.20;4.68;;;17.20;99.90;;;;;;5030386;28;20037;-71
2023/09/30 08:55:54;;;;;;;10.55;4.60;;;17.20;99.90;;;;;;5030311;28;20124;-71
2023/09/30 08:58:22;;;;;;;11.50;4.18;;;17.30;99.90;;;;;;5030142;28;20037;-71
2023/09/30 09:00:48;;;;;;;10.48;4.00;;;17.40;99.90;;;;;;5028860;28;20049;-70
2023/09/30 09:03:14;;;;;;;11.18;3.95;;;17.40;99.90;;;;;;5030352;28;20108;-71
2023/09/30 09:05:40;;;;;;;9.75;4.65;;;17.50;99.90;;;;;;5028649;28;20416;-70
2023/09/30 09:08:06;;;;;;;9.73;3.75;;;17.50;99.90;;;;;;5030054;28;20079;-71
2023/09/30 09:10:31;;;;;;;12.07;4.97;;;17.60;99.90;;;;;;5029814;28;20065;-70
2023/09/30 09:12:58;;;;;;;9.52;3.50;;;17.60;99.90;;;;;;5029952;28;20117;-70
2023/09/30 09:15:25;;;;;;;7.80;3.65;;;17.70;99.90;;;;;;5029771;28;20048;-70
2023/09/30 09:17:51;;;;;;;14.02;3.88;;;17.80;99.90;;;;;;5029959;28;20037;-70
2023/09/30 09:20:20;;;;;;;9.80;4.15;;;17.80;99.90;;;;;;5028531;28;20050;-70
2023/09/30 09:22:47;;;;;;;10.95;3.80;;;17.80;99.90;;;;;;5029906;28;20112;-71
2023/09/30 09:25:13;;;;;;;12.82;4.13;;;17.80;99.90;;;;;;5029616;28;20037;-71
2023/09/30 09:27:39;;;;;;;11.00;3.38;;;18.00;99.90;;;;;;5028629;28;20041;-70
2023/09/30 09:30:22;;;;;;;11.68;3.28;;;18.00;99.90;;;;;;5028385;28;20377;-71
2023/09/30 09:33:14;;;;;;;9.57;3.78;;;17.90;99.90;;;;;;5029705;28;20045;-70
2023/09/30 09:35:39;;;;;;;6.72;2.70;;;18.10;99.90;;;;;;5030028;28;20416;-71
2023/09/30 09:38:08;;;;;;;12.95;2.95;;;18.30;99.90;;;;;;5022295;28;20034;-71
2023/09/30 09:40:35;;;;;;;13.23;3.15;;;18.40;99.90;;;;;;5029136;28;20196;-71
2023/09/30 09:43:04;;;;;;;5.15;3.08;;;18.40;99.90;;;;;;5028129;28;20553;-71
2023/09/30 09:45:32;;;;;;;7.75;3.45;;;18.50;99.90;;;;;;5029373;28;20053;-72
2023/09/30 09:47:58;;;;;;;8.85;2.50;;;18.50;99.90;;;;;;5029259;28;20120;-70
2023/09/30 09:50:24;;;;;;;9.52;2.65;;;18.60;99.90;;;;;;5029181;28;20072;-70
2023/09/30 09:52:51;;;;;;;12.00;2.45;;;18.60;99.90;;;;;;5028751;28;20041;-70
2023/09/30 09:55:18;;;;;;;9.05;2.00;;;18.70;99.90;;;;;;5029455;28;20048;-70
2023/09/30 09:57:45;;;;;;;10.98;3.13;;;18.70;99.90;;;;;;5029359;28;20122;-70
2023/09/30 10:00:14;;;;;;;8.07;1.77;;;18.70;99.90;;;;;;5027686;28;20044;-70
2023/09/30 10:02:40;;;;;;;9.38;3.17;;;18.70;99.90;;;;;;5029269;28;20168;-70
2023/09/30 10:05:07;;;;;;;8.13;1.77;;;18.80;99.90;;;;;;5029017;28;20519;-70
2023/09/30 10:07:45;;;;;;;8.82;2.67;;;18.80;99.90;;;;;;5029115;28;20041;-70
2023/09/30 10:10:16;;;;;;;11.88;2.50;;;18.80;99.90;;;;;;5027793;28;20400;-70
2023/09/30 10:12:42;;;;;;;9.18;2.42;;;18.80;99.90;;;;;;5028998;28;20046;-70
2023/09/30 10:15:26;;;;;;;10.07;2.30;;;18.70;99.90;;;;;;5027834;28;20044;-70
2023/09/30 10:18:03;;;;;;;12.50;2.80;;;18.70;99.90;;;;;;5028769;28;20116;-70
2023/09/30 10:20:29;;;;;;;6.43;1.90;;;18.70;99.90;;;;;;5028899;28;20053;-70
2023/09/30 10:23:17;;;;;;;8.93;2.17;;;18.60;99.90;;;;;;5029092;28;20408;-70
2023/09/30 10:25:49;;;;;;;6.60;2.13;;;18.60;99.90;;;;;;5028851;28;20129;-71
2023/09/30 10:28:41;;;;;;;12.63;1.88;;;18.50;99.90;;;;;;5028713;28;20029;-71
2023/09/30 10:31:25;;;;;;;5.75;1.90;;;18.40;99.90;;;;;;5028818;28;20052;-70
2023/09/30 10:34:00;;;;;;;7.95;1.92;;;18.20;99.90;;;;;;5028765;28;20488;-70
2023/09/30 10:36:39;;;;;;;7.32;2.10;;;18.10;99.90;;;;;;5028740;28;20404;-70
2023/09/30 10:39:08;;;;;;;10.27;1.77;;;18.20;99.90;;;;;;5028657;28;20106;-70
2023/09/30 10:41:46;;;;;;;11.90;2.03;;;18.10;99.90;;;;;;5028593;28;20048;-70
2023/09/30 10:44:27;;;;;;;9.60;1.83;;;18.10;99.90;;;;;;5027592;28;20396;-70
2023/09/30 10:46:54;;;;;;;7.05;1.40;;;18.10;99.90;;;;;;5028577;28;20049;-70
2023/09/30 10:49:25;;;;;;;6.07;1.63;;;18.10;99.90;;;;;;5019222;28;20068;-70
2023/09/30 10:51:52;;;;;;;7.70;2.15;;;18.20;99.90;;;;;;5019534;28;20056;-70
2023/09/30 10:54:28;;;;;;;7.90;2.00;;;18.40;99.90;;;;;;5028670;28;20029;-70
2023/09/30 10:56:54;;;;;;;6.63;2.05;;;18.50;99.90;;;;;;5027220;28;20417;-70
2023/09/30 10:59:23;;;;;;;8.23;2.53;;;18.70;99.90;;;;;;5028091;28;20037;-70
2023/09/30 11:01:55;;;;;;;6.88;2.30;;;18.70;99.90;;;;;;5027214;28;20045;-70
2023/09/30 11:04:21;;;;;;;10.15;1.90;;;18.80;99.90;;;;;;5028021;28;20523;-70
2023/09/30 11:06:47;;;;;;;7.25;1.70;;;18.90;99.90;;;;;;5031908;28;20041;-71
2023/09/30 11:09:21;;;;;;;7.72;1.90;;;18.90;99.90;;;;;;5030105;28;20078;-71
2023/09/30 11:11:52;;;;;;;3.97;1.33;;;18.90;99.90;;;;;;5030595;28;20493;-70
2023/09/30 11:14:31;;;;;;;5.97;1.98;;;18.90;99.90;;;;;;5031652;28;20041;-70
2023/09/30 11:16:59;;;;;;;10.15;2.40;;;18.60;99.90;;;;;;5030480;28;20045;-71
2023/09/30 11:19:25;;;;;;;7.57;2.30;;;18.50;99.90;;;;;;5031479;28;20046;-70
2023/09/30 11:21:52;;;;;;;5.28;1.55;;;18.50;99.90;;;;;;5031601;28;20493;-70
2023/09/30 11:24:18;;;;;;;5.20;1.50;;;18.30;99.90;;;;;;5031644;28;20077;-70
2023/09/30 11:26:45;;;;;;;8.93;2.13;;;18.30;99.90;;;;;;5031390;28;20389;-70
2023/09/30 11:29:15;;;;;;;3.38;1.20;;;18.20;99.90;;;;;;5031519;28;20445;-70
2023/09/30 11:31:43;;;;;;;6.57;1.70;;;18.20;99.90;;;;;;5031629;28;20101;-70
2023/09/30 11:34:10;;;;;;;6.35;1.40;;;18.00;99.90;;;;;;5031507;28;20045;-70
2023/09/30 11:36:42;;;;;;;10.35;1.75;;;18.10;99.90;;;;;;5030200;28;20037;-70
2023/09/30 11:39:09;;;;;;;9.32;1.70;;;18.20;99.90;;;;;;5031095;28;20045;-70
2023/09/30 11:41:39;;;;;;;5.20;1.58;;;18.30;99.90;;;;;;5029944;28;20641;-70
2023/09/30 11:44:11;;;;;;;9.30;1.90;;;18.30;99.90;;;;;;5031484;28;20049;-70
2023/09/30 11:46:59;;;;;;;4.18;1.65;;;18.40;99.90;;;;;;5029810;28;20083;-70
2023/09/30 11:49:35;;;;;;;7.60;2.03;;;18.20;99.90;;;;;;5020272;28;20458;-70
2023/09/30 11:52:10;;;;;;;6.82;1.25;;;18.20;99.90;;;;;;5020590;28;20034;-70
2023/09/30 11:54:43;;;;;;;5.82;1.92;;;18.30;99.90;;;;;;5019637;28;20501;-70
2023/09/30 11:57:16;;;;;;;4.18;1.27;;;18.40;99.90;;;;;;5020064;28;20041;-70
2023/09/30 11:59:44;;;;;;;6.57;2.20;;;18.30;99.90;;;;;;5019925;28;20034;-70
2023/09/30 12:02:10;;;;;;;10.05;1.77;;;18.20;99.90;;;;;;5027929;28;20132;-70
2023/09/30 12:04:36;;;;;;;11.88;2.00;;;18.20;99.90;;;;;;5031148;28;20045;-70
2023/09/30 12:07:02;;;;;;;5.43;1.63;;;18.30;99.90;;;;;;5030985;28;20110;-70
2023/09/30 12:09:29;;;;;;;10.23;2.15;;;18.20;99.90;;;;;;5022782;28;20500;-70
2023/09/30 12:11:57;;;;;;;10.35;2.08;;;18.20;99.90;;;;;;5021163;28;20030;-70
2023/09/30 12:14:24;;;;;;;8.23;2.75;;;18.10;99.90;;;;;;5011022;28;20034;-70
2023/09/30 12:16:50;;;;;;;10.30;2.88;;;18.00;99.90;;;;;;5011051;28;20077;-71
2023/09/30 12:19:20;;;;;;;6.00;1.85;;;17.80;99.90;;;;;;5010786;28;20443;-71
2023/09/30 12:21:47;;;;;;;4.95;1.60;;;17.80;99.90;;;;;;5011096;28;20057;-70
2023/09/30 12:24:19;;;;;;;6.88;1.90;;;17.70;99.90;;;;;;5011070;28;20041;-70
2023/09/30 12:26:48;;;;;;;6.72;1.45;;;17.60;99.90;;;;;;5011026;28;20117;-69
2023/09/30 12:29:23;;;;;;;6.70;1.63;;;17.50;99.90;;;;;;5010506;28;20508;-69
2023/09/30 12:31:50;;;;;;;5.35;1.40;;;17.40;99.90;;;;;;5011225;28;20045;-69
2023/09/30 12:34:16;;;;;;;5.05;1.50;;;17.40;99.90;;;;;;5011060;28;20038;-70
2023/09/30 12:36:43;;;;;;;6.05;1.58;;;17.40;99.90;;;;;;5010898;28;20121;-69
2023/09/30 12:39:12;;;;;;;7.75;1.98;;;17.30;99.90;;;;;;5010566;28;20041;-69
2023/09/30 12:41:42;;;;;;;15.40;2.10;;;17.30;99.90;;;;;;5010560;28;20042;-69